Time;durP1;ratioP1;P1;durP2;ratioP2;P2;SDS_P1;SDS_P2;PMS_P1;PMS_P2;Temp;Humidity;BMP_temperature;BMP_pressure;BME280_temperature;BME280_humidity;BME280_pressure;Samples;Min_cycle;Max_cycle;Signal;HPM_P1;HPM_P2
2023/10/01 00:01:51;;;;;;;339.67;104.50;;;;;13.60;97706.00;;;;5010151;28;20456;-68
2023/10/01 00:04:40;;;;;;;334.70;98.17;;;;;13.40;97709.00;;;;5008981;28;20426;-68
2023/10/01 00:07:29;;;;;;;341.73;101.77;;;;;13.80;97708.00;;;;5007229;28;20422;-69
2023/10/01 00:10:19;;;;;;;336.53;105.07;;;;;13.60;97712.00;;;;5010520;28;20437;-69
2023/10/01 00:13:11;;;;;;;338.20;99.87;;;;;13.30;97711.00;;;;5008508;28;20543;-69
2023/10/01 00:16:00;;;;;;;336.83;98.30;;;;;13.00;97720.00;;;;5009130;28;20433;-69
2023/10/01 00:18:49;;;;;;;335.73;98.60;;;;;13.30;97700.00;;;;5009629;28;20437;-68
2023/10/01 00:21:39;;;;;;;333.13;96.17;;;;;13.40;97700.00;;;;5013283;28;20545;-69
2023/10/01 00:24:28;;;;;;;341.00;102.57;;;;;13.90;97709.00;;;;5013644;28;20432;-69
2023/10/01 00:27:17;;;;;;;329.70;92.83;;;;;14.00;97707.00;;;;5019704;28;20440;-68
2023/10/01 00:30:09;;;;;;;333.23;95.33;;;;;13.80;97702.00;;;;5013057;28;20429;-69
2023/10/01 00:32:59;;;;;;;334.27;100.40;;;;;13.80;97701.00;;;;5011299;28;20489;-70
2023/10/01 00:35:48;;;;;;;331.67;95.97;;;;;13.60;97701.00;;;;5014900;28;20428;-70
2023/10/01 00:38:37;;;;;;;338.57;99.83;;;;;13.10;97698.00;;;;5019151;28;20441;-69
2023/10/01 00:41:26;;;;;;;337.10;101.43;;;;;13.30;97702.00;;;;5016244;28;20437;-69
2023/10/01 00:44:17;;;;;;;330.87;93.23;;;;;13.50;97700.00;;;;5018270;28;20433;-69
2023/10/01 00:47:07;;;;;;;326.77;91.83;;;;;13.80;97700.00;;;;5007396;28;20444;-69
2023/10/01 00:49:58;;;;;;;327.70;92.77;;;;;13.90;97690.00;;;;5017493;28;20816;-70
2023/10/01 00:52:49;;;;;;;337.63;107.80;;;;;13.90;97699.00;;;;5008041;28;20469;-71
2023/10/01 00:55:39;;;;;;;336.97;97.37;;;;;14.00;97697.00;;;;5018708;28;20960;-69
2023/10/01 00:58:28;;;;;;;341.93;105.70;;;;;14.10;97703.00;;;;5014341;28;21008;-69
2023/10/01 01:01:18;;;;;;;332.40;98.33;;;;;14.10;97700.00;;;;5016792;28;20449;-68
2023/10/01 01:04:17;;;;;;;337.43;104.20;;;;;14.10;97695.00;;;;5012378;28;20928;-68
2023/10/01 01:07:14;;;;;;;329.60;96.97;;;;;14.40;97703.00;;;;5016305;28;20428;-69
2023/10/01 01:10:04;;;;;;;329.70;98.47;;;;;14.40;97696.00;;;;5016839;28;20417;-69
2023/10/01 01:12:54;;;;;;;322.67;91.57;;;;;14.10;97705.00;;;;5018980;28;20464;-69
2023/10/01 01:15:45;;;;;;;328.47;97.03;;;;;14.20;97710.00;;;;5012942;28;20559;-69
2023/10/01 01:18:36;;;;;;;335.37;99.13;;;;;14.40;97703.00;;;;5016274;28;20429;-69
2023/10/01 01:21:27;;;;;;;337.20;100.87;;;;;14.40;97708.00;;;;5009118;28;20461;-69
2023/10/01 01:24:17;;;;;;;333.20;98.73;;;;;14.60;97709.00;;;;5007379;28;20430;-69
2023/10/01 01:27:06;;;;;;;326.53;92.33;;;;;14.30;97706.00;;;;5007539;28;20433;-69
2023/10/01 01:29:57;;;;;;;328.70;100.20;;;;;14.10;97719.00;;;;5018813;28;20440;-69
2023/10/01 01:32:47;;;;;;;325.60;92.87;;;;;14.20;97712.00;;;;5009993;28;20476;-68
2023/10/01 01:35:36;;;;;;;339.27;107.63;;;;;14.20;97710.00;;;;5012761;28;20938;-68
2023/10/01 01:38:25;;;;;;;336.00;104.17;;;;;14.10;97712.00;;;;5011870;28;20425;-69
2023/10/01 01:41:19;;;;;;;327.43;92.63;;;;;13.80;97707.00;;;;5017335;28;20476;-69
2023/10/01 01:44:08;;;;;;;341.27;105.50;;;;;13.80;97707.00;;;;5017505;28;20793;-68
2023/10/01 01:47:00;;;;;;;339.03;103.73;;;;;13.40;97701.00;;;;5008443;28;20426;-68
2023/10/01 01:49:49;;;;;;;338.60;110.03;;;;;13.30;97708.00;;;;5014933;28;20432;-68
2023/10/01 01:52:41;;;;;;;341.57;103.53;;;;;13.20;97705.00;;;;5018582;28;20449;-69
2023/10/01 01:55:30;;;;;;;331.90;93.63;;;;;13.20;97695.00;;;;5012639;28;20424;-69
2023/10/01 01:58:24;;;;;;;324.00;89.87;;;;;13.20;97696.00;;;;5010095;28;20437;-68
2023/10/01 02:01:23;;;;;;;329.40;96.57;;;;;13.40;97696.00;;;;5017941;28;20452;-68
2023/10/01 02:04:13;;;;;;;331.17;95.73;;;;;13.20;97696.00;;;;5007451;28;20440;-69
2023/10/01 02:07:02;;;;;;;327.63;90.97;;;;;13.00;97698.00;;;;5016903;28;20428;-69
2023/10/01 02:09:52;;;;;;;325.50;90.30;;;;;12.80;97702.00;;;;5016784;28;20432;-68
2023/10/01 02:12:41;;;;;;;329.60;99.20;;;;;12.80;97704.00;;;;5019868;28;20453;-69
2023/10/01 02:15:32;;;;;;;333.10;97.20;;;;;13.20;97700.00;;;;5010703;28;20433;-69
2023/10/01 02:18:21;;;;;;;321.33;89.93;;;;;13.50;97708.00;;;;5017336;28;20938;-69
2023/10/01 02:21:17;;;;;;;329.83;96.50;;;;;13.50;97709.00;;;;5025917;28;20448;-69
2023/10/01 02:24:06;;;;;;;335.87;98.50;;;;;13.00;97687.00;;;;5016571;28;20425;-69
2023/10/01 02:26:59;;;;;;;340.50;106.13;;;;;12.60;97685.00;;;;5012116;28;20436;-69
2023/10/01 02:35:58;;;;;;;341.53;106.13;;;;;13.50;97688.00;;;;5008752;28;20437;-69
2023/10/01 02:38:47;;;;;;;337.47;100.50;;;;;13.20;97688.00;;;;5012565;28;20425;-69
2023/10/01 02:41:38;;;;;;;347.67;106.03;;;;;12.70;97683.00;;;;5010692;28;20445;-69
2023/10/01 02:44:27;;;;;;;354.53;110.27;;;;;12.80;97684.00;;;;5007307;28;20359;-68
2023/10/01 02:47:20;;;;;;;349.87;106.37;;;;;12.90;97678.00;;;;5011889;28;20202;-68
2023/10/01 02:50:15;;;;;;;348.17;101.13;;;;;12.90;97685.00;;;;5012240;28;20206;-69
2023/10/01 02:53:05;;;;;;;347.57;105.00;;;;;13.00;97684.00;;;;5010525;28;20221;-69
2023/10/01 02:56:02;;;;;;;345.47;103.33;;;;;12.80;97686.00;;;;5008399;28;20206;-68
2023/10/01 02:58:50;;;;;;;342.63;100.10;;;;;12.70;97680.00;;;;5008185;28;20201;-69
2023/10/01 03:01:42;;;;;;;350.93;105.57;;;;;13.00;97680.00;;;;5010130;28;20483;-69
2023/10/01 03:04:33;;;;;;;350.70;103.40;;;;;13.00;97685.00;;;;5009975;28;20194;-69
2023/10/01 03:07:25;;;;;;;344.83;101.13;;;;;13.00;97677.00;;;;5008053;28;20202;-69
2023/10/01 03:10:25;;;;;;;342.03;101.23;;;;;12.60;97683.00;;;;5010765;28;20210;-69
2023/10/01 03:13:17;;;;;;;338.00;95.80;;;;;12.30;97675.00;;;;5011617;28;20457;-68
2023/10/01 03:19:24;;;;;;;341.73;98.47;;;;;12.50;97677.00;;;;5009024;28;20432;-69
2023/10/01 03:22:23;;;;;;;333.10;91.60;;;;;12.50;97679.00;;;;5011027;28;20492;-68
2023/10/01 03:25:28;;;;;;;332.47;93.23;;;;;12.70;97682.00;;;;5010233;28;20946;-69
2023/10/01 03:28:25;;;;;;;343.90;96.93;;;;;12.70;97684.00;;;;5010808;28;20440;-70
2023/10/01 03:31:15;;;;;;;340.07;95.43;;;;;12.30;97682.00;;;;5011066;28;20230;-70
2023/10/01 03:34:05;;;;;;;344.63;95.40;;;;;12.60;97681.00;;;;5008395;28;20225;-69
2023/10/01 03:36:58;;;;;;;342.70;96.83;;;;;12.50;97690.00;;;;5010099;28;20281;-70
2023/10/01 03:39:50;;;;;;;343.07;97.30;;;;;12.30;97689.00;;;;5009967;28;20209;-69
2023/10/01 03:42:49;;;;;;;350.27;104.27;;;;;12.10;97698.00;;;;5009182;28;20449;-68
2023/10/01 03:45:51;;;;;;;341.70;94.77;;;;;12.50;97699.00;;;;5009054;28;20429;-69
2023/10/01 03:49:00;;;;;;;343.43;94.10;;;;;12.90;97700.00;;;;5014841;28;20428;-69
2023/10/01 03:51:59;;;;;;;335.10;91.37;;;;;12.60;97701.00;;;;5025055;28;20513;-68
2023/10/01 03:55:00;;;;;;;336.30;93.50;;;;;12.50;97697.00;;;;5013971;28;20905;-69
2023/10/01 03:57:56;;;;;;;331.63;90.60;;;;;12.90;97706.00;;;;5006617;28;21135;-69
2023/10/01 04:00:53;;;;;;;356.87;105.87;;;;;12.70;97699.00;;;;5005540;28;20448;-69
2023/10/01 04:03:42;;;;;;;334.77;93.43;;;;;12.40;97712.00;;;;5010307;28;21301;-69
2023/10/01 04:06:32;;;;;;;348.20;101.93;;;;;12.40;97711.00;;;;5006441;28;20440;-69
2023/10/01 04:09:26;;;;;;;336.77;93.87;;;;;12.50;97709.00;;;;5002814;28;20421;-69
2023/10/01 04:12:28;;;;;;;332.63;94.13;;;;;12.60;97707.00;;;;5000997;28;20491;-70
2023/10/01 04:15:27;;;;;;;337.07;94.37;;;;;12.30;97716.00;;;;5009721;28;20472;-70
2023/10/01 04:18:21;;;;;;;334.50;94.27;;;;;11.80;97712.00;;;;5005613;28;20464;-69
2023/10/01 04:21:24;;;;;;;341.40;99.20;;;;;11.80;97708.00;;;;5008207;28;20453;-69
2023/10/01 04:24:16;;;;;;;332.57;90.17;;;;;11.80;97708.00;;;;5009058;28;20942;-69
2023/10/01 04:27:23;;;;;;;325.23;84.87;;;;;11.50;97710.00;;;;5008147;28;20958;-71
2023/10/01 04:30:14;;;;;;;326.37;86.67;;;;;11.70;97720.00;;;;5012496;28;20471;-71
2023/10/01 04:33:16;;;;;;;330.60;92.50;;;;;11.80;97709.00;;;;5006976;28;20452;-70
2023/10/01 04:36:10;;;;;;;341.23;102.83;;;;;11.80;97712.00;;;;5007177;28;20439;-69
2023/10/01 04:39:01;;;;;;;333.57;95.37;;;;;12.20;97723.00;;;;5007825;28;20433;-69
2023/10/01 04:41:58;;;;;;;330.20;91.47;;;;;12.20;97725.00;;;;5008894;28;20449;-69
2023/10/01 04:44:47;;;;;;;343.97;94.90;;;;;12.40;97727.00;;;;5006213;28;20436;-70
2023/10/01 04:47:41;;;;;;;342.37;95.70;;;;;12.60;97727.00;;;;5007113;28;20440;-69
2023/10/01 04:50:32;;;;;;;348.13;101.80;;;;;12.60;97736.00;;;;5001405;28;20437;-69
2023/10/01 04:53:22;;;;;;;333.83;90.87;;;;;12.10;97743.00;;;;5004860;28;20440;-69
2023/10/01 04:56:11;;;;;;;338.37;96.57;;;;;12.10;97732.00;;;;5007235;28;20472;-71
2023/10/01 04:59:00;;;;;;;336.13;91.27;;;;;12.40;97738.00;;;;5009105;28;20444;-70
2023/10/01 05:01:56;;;;;;;339.67;95.63;;;;;12.30;97733.00;;;;5007556;28;20446;-70
2023/10/01 05:04:46;;;;;;;340.33;96.50;;;;;12.20;97733.00;;;;5004952;28;20521;-69
2023/10/01 05:07:37;;;;;;;341.77;97.40;;;;;12.70;97735.00;;;;5007361;28;20797;-69
2023/10/01 05:10:26;;;;;;;336.47;95.13;;;;;12.90;97736.00;;;;5005140;28;20425;-69
2023/10/01 05:13:19;;;;;;;336.37;95.20;;;;;13.20;97744.00;;;;5009541;28;20429;-69
2023/10/01 05:16:12;;;;;;;337.83;95.60;;;;;13.40;97747.00;;;;5008100;28;20538;-69
2023/10/01 05:22:08;;;;;;;338.97;98.47;;;;;12.90;97765.00;;;;5009367;28;20812;-69
2023/10/01 05:25:00;;;;;;;344.70;102.00;;;;;12.70;97776.00;;;;5007985;28;20499;-70
2023/10/01 05:27:54;;;;;;;334.47;95.77;;;;;12.90;97780.00;;;;5008989;28;20426;-69
2023/10/01 05:30:43;;;;;;;335.03;97.00;;;;;12.90;97776.00;;;;5007675;28;20993;-69
2023/10/01 05:33:33;;;;;;;344.83;102.67;;;;;12.80;97783.00;;;;5008245;28;20429;-70
2023/10/01 05:36:23;;;;;;;335.83;96.40;;;;;12.90;97787.00;;;;5005419;28;20979;-69
2023/10/01 05:39:12;;;;;;;341.03;101.10;;;;;12.90;97785.00;;;;5009115;28;20433;-70
2023/10/01 05:42:02;;;;;;;332.47;92.73;;;;;13.10;97798.00;;;;5010475;28;20961;-68
2023/10/01 05:44:52;;;;;;;336.20;94.70;;;;;13.70;97792.00;;;;5013182;28;20425;-68
2023/10/01 05:47:45;;;;;;;336.73;98.33;;;;;13.80;97785.00;;;;5011476;28;20440;-68
2023/10/01 05:50:36;;;;;;;344.23;104.90;;;;;13.80;97785.00;;;;5009253;28;20440;-69
2023/10/01 05:53:25;;;;;;;340.07;103.87;;;;;13.80;97794.00;;;;5010191;28;20804;-68
2023/10/01 05:56:17;;;;;;;337.30;98.77;;;;;14.10;97800.00;;;;5011988;28;20476;-68
2023/10/01 05:59:09;;;;;;;337.23;96.50;;;;;13.90;97793.00;;;;5014128;28;20496;-69
2023/10/01 06:01:58;;;;;;;338.97;107.60;;;;;14.00;97790.00;;;;5009478;28;20226;-69
2023/10/01 06:04:51;;;;;;;338.10;96.23;;;;;13.90;97795.00;;;;5005597;28;20497;-69
2023/10/01 06:07:41;;;;;;;335.03;100.07;;;;;13.60;97800.00;;;;5016129;28;20428;-68
2023/10/01 06:10:35;;;;;;;342.40;102.23;;;;;13.70;97800.00;;;;5018843;28;20432;-69
2023/10/01 06:13:25;;;;;;;342.97;107.87;;;;;13.80;97791.00;;;;5012346;28;20495;-70
2023/10/01 06:16:16;;;;;;;341.67;107.67;;;;;14.00;97794.00;;;;5017401;28;21008;-71
2023/10/01 06:19:11;;;;;;;336.90;100.93;;;;;14.00;97800.00;;;;5017305;28;20428;-70
2023/10/01 06:22:13;;;;;;;339.87;105.70;;;;;14.10;97798.00;;;;5015757;28;20456;-70
2023/10/01 06:25:02;;;;;;;345.70;106.03;;;;;13.90;97794.00;;;;5017471;28;20193;-69
2023/10/01 06:28:07;;;;;;;342.17;106.40;;;;;14.10;97798.00;;;;5016764;28;20245;-69
2023/10/01 06:30:56;;;;;;;340.03;105.93;;;;;14.20;97797.00;;;;5009174;28;20205;-70
2023/10/01 06:33:53;;;;;;;340.57;106.30;;;;;14.00;97794.00;;;;5011790;28;20205;-70
2023/10/01 06:36:42;;;;;;;338.30;99.50;;;;;14.00;97791.00;;;;5011521;28;20871;-69
2023/10/01 06:39:35;;;;;;;344.57;107.27;;;;;14.30;97797.00;;;;5012404;28;20202;-69
2023/10/01 06:42:24;;;;;;;343.87;102.93;;;;;14.40;97804.00;;;;5011771;28;20461;-69
2023/10/01 06:45:15;;;;;;;336.03;99.23;;;;;14.40;97800.00;;;;5014363;28;20409;-69
2023/10/01 06:48:08;;;;;;;337.43;100.93;;;;;14.50;97801.00;;;;5011162;28;20202;-70
2023/10/01 06:50:59;;;;;;;335.63;95.97;;;;;14.10;97795.00;;;;5015677;28;20206;-71
2023/10/01 06:53:53;;;;;;;338.87;99.43;;;;;14.40;97791.00;;;;5019615;28;20198;-69
2023/10/01 06:56:48;;;;;;;342.57;106.80;;;;;14.70;97793.00;;;;5011495;28;20741;-70
2023/10/01 06:59:38;;;;;;;343.67;102.53;;;;;14.70;97800.00;;;;5014138;28;20443;-70
2023/10/01 07:02:28;;;;;;;343.47;105.30;;;;;15.00;97810.00;;;;5012816;28;20228;-70
2023/10/01 07:05:20;;;;;;;337.63;99.37;;;;;14.80;97789.00;;;;5014042;28;20418;-69
2023/10/01 07:08:11;;;;;;;339.93;105.17;;;;;15.40;97803.00;;;;4998719;28;20265;-70
2023/10/01 07:11:11;;;;;;;341.20;105.17;;;;;15.40;97804.00;;;;5005212;28;20209;-69
2023/10/01 07:14:01;;;;;;;352.07;118.43;;;;;15.10;97806.00;;;;5010920;28;20205;-70
2023/10/01 07:16:51;;;;;;;346.43;111.87;;;;;15.30;97797.00;;;;5011323;28;20262;-70
2023/10/01 07:19:40;;;;;;;348.87;116.33;;;;;15.40;97802.00;;;;5025167;28;20213;-69
2023/10/01 07:22:31;;;;;;;354.23;118.27;;;;;15.50;97797.00;;;;5008723;28;20651;-70
2023/10/01 07:25:37;;;;;;;356.07;127.87;;;;;15.30;97801.00;;;;5006109;28;20194;-70
2023/10/01 07:28:27;;;;;;;349.57;114.93;;;;;15.40;97804.00;;;;5001861;28;20662;-70
2023/10/01 07:31:19;;;;;;;341.03;110.37;;;;;15.80;97803.00;;;;5002717;28;20222;-69
2023/10/01 07:34:13;;;;;;;344.27;112.90;;;;;16.10;97796.00;;;;5014043;28;20718;-70
2023/10/01 07:37:04;;;;;;;353.50;128.70;;;;;15.90;97800.00;;;;5010718;28;20221;-70
2023/10/01 07:39:59;;;;;;;343.63;112.77;;;;;16.30;97802.00;;;;5014778;28;20637;-69
2023/10/01 07:42:54;;;;;;;360.40;136.87;;;;;16.40;97804.00;;;;5017419;28;20746;-70
2023/10/01 07:45:55;;;;;;;363.77;139.20;;;;;16.70;97808.00;;;;5015355;28;20717;-70
2023/10/01 07:48:47;;;;;;;363.77;142.07;;;;;16.90;97811.00;;;;5014186;28;20710;-69
2023/10/01 07:51:38;;;;;;;365.03;142.83;;;;;17.10;97814.00;;;;5012804;28;20280;-69
2023/10/01 07:54:28;;;;;;;357.43;142.80;;;;;17.40;97817.00;;;;5010742;28;20201;-70
2023/10/01 07:57:24;;;;;;;373.93;160.83;;;;;17.60;97819.00;;;;5013506;28;20221;-71
2023/10/01 08:00:26;;;;;;;368.60;147.37;;;;;17.80;97814.00;;;;5010706;28;20197;-70
2023/10/01 08:03:32;;;;;;;365.93;150.17;;;;;18.20;97821.00;;;;5010086;28;20229;-70
2023/10/01 08:06:29;;;;;;;357.87;143.47;;;;;18.80;97828.00;;;;5007204;28;20209;-70
2023/10/01 08:09:18;;;;;;;353.87;139.57;;;;;19.10;97821.00;;;;5009459;28;20261;-70
2023/10/01 08:12:08;;;;;;;368.33;167.20;;;;;19.40;97831.00;;;;5009325;28;20229;-70
2023/10/01 08:18:34;;;;;;;356.53;148.17;;;;;19.80;97828.00;;;;5013391;28;20202;-70
2023/10/01 08:21:36;;;;;;;368.33;175.70;;;;;19.40;97830.00;;;;5008842;28;20702;-70
2023/10/01 08:24:33;;;;;;;365.07;165.87;;;;;20.00;97815.00;;;;5007465;28;20206;-69
2023/10/01 08:27:33;;;;;;;360.40;165.97;;;;;20.40;97824.00;;;;5008600;28;20802;-70
2023/10/01 08:30:38;;;;;;;363.50;174.03;;;;;20.50;97815.00;;;;5008906;28;20206;-70
2023/10/01 08:33:33;;;;;;;367.13;181.77;;;;;20.70;97815.00;;;;5005634;28;20710;-71
2023/10/01 08:36:24;;;;;;;356.30;171.30;;;;;20.70;97818.00;;;;5009483;28;20219;-70
2023/10/01 08:39:33;;;;;;;373.97;199.73;;;;;20.80;97812.00;;;;5006518;28;20205;-70
2023/10/01 08:42:28;;;;;;;366.80;188.23;;;;;20.70;97815.00;;;;5007316;28;20226;-70
2023/10/01 08:45:19;;;;;;;365.60;194.53;;;;;21.30;97814.00;;;;5006159;28;20567;-70
2023/10/01 08:48:09;;;;;;;364.00;190.60;;;;;21.40;97815.00;;;;5007793;28;20198;-70
2023/10/01 08:51:08;;;;;;;368.37;195.63;;;;;21.60;97808.00;;;;5009885;28;20208;-70
2023/10/01 08:54:14;;;;;;;361.80;181.83;;;;;21.70;97799.00;;;;5009258;28;20699;-71
2023/10/01 08:57:15;;;;;;;362.93;209.70;;;;;22.00;97808.00;;;;5009292;28;20229;-71
2023/10/01 09:00:17;;;;;;;357.63;193.03;;;;;21.90;97812.00;;;;5013394;28;20940;-71
2023/10/01 09:03:10;;;;;;;358.70;190.57;;;;;21.50;97798.00;;;;4999728;28;20225;-70
2023/10/01 09:06:03;;;;;;;359.03;194.03;;;;;22.20;97799.00;;;;5001618;28;20683;-71
2023/10/01 09:08:55;;;;;;;359.43;199.50;;;;;21.90;97793.00;;;;5009271;28;20659;-70
2023/10/01 09:11:49;;;;;;;368.97;210.77;;;;;21.50;97795.00;;;;5005744;28;20214;-70
2023/10/01 09:14:39;;;;;;;369.00;200.53;;;;;22.40;97794.00;;;;5006606;28;20220;-70
2023/10/01 09:17:40;;;;;;;356.43;188.57;;;;;21.60;97792.00;;;;5005312;28;20226;-70
2023/10/01 09:20:40;;;;;;;357.13;190.63;;;;;22.70;97799.00;;;;5007480;28;20206;-70
2023/10/01 09:23:54;;;;;;;358.53;196.97;;;;;22.90;97799.00;;;;5006940;28;20206;-70
2023/10/01 09:26:53;;;;;;;369.67;214.17;;;;;22.80;97801.00;;;;5006913;28;20256;-70
2023/10/01 09:29:48;;;;;;;369.97;222.37;;;;;22.90;97789.00;;;;5006492;28;20815;-70
2023/10/01 09:32:50;;;;;;;365.20;213.07;;;;;23.50;97788.00;;;;5005855;28;20874;-70
2023/10/01 09:35:49;;;;;;;369.17;209.00;;;;;23.70;97789.00;;;;5002149;28;20224;-71
2023/10/01 09:38:57;;;;;;;373.13;228.20;;;;;22.90;97783.00;;;;5006499;28;20205;-70
2023/10/01 09:41:48;;;;;;;369.30;233.00;;;;;23.60;97785.00;;;;5006635;28;20618;-70
2023/10/01 09:44:46;;;;;;;371.57;227.33;;;;;24.10;97782.00;;;;5005498;28;20205;-71
2023/10/01 09:47:36;;;;;;;369.07;223.27;;;;;24.10;97787.00;;;;5006825;28;20293;-71
2023/10/01 09:50:26;;;;;;;359.87;217.47;;;;;24.10;97781.00;;;;5012933;28;20221;-70
2023/10/01 09:53:18;;;;;;;363.70;227.70;;;;;24.30;97780.00;;;;5007695;28;20227;-70
2023/10/01 09:56:12;;;;;;;365.13;236.07;;;;;24.80;97775.00;;;;5005821;28;20202;-70
2023/10/01 09:59:03;;;;;;;371.47;256.47;;;;;25.20;97779.00;;;;5005897;28;20189;-69
2023/10/01 10:02:02;;;;;;;367.90;251.00;;;;;25.20;97778.00;;;;5007697;28;20224;-70
2023/10/01 10:04:52;;;;;;;365.37;240.10;;;;;25.30;97767.00;;;;5012048;28;20907;-69
2023/10/01 10:07:41;;;;;;;362.37;229.53;;;;;25.70;97770.00;;;;5020955;28;20574;-71
2023/10/01 10:10:30;;;;;;;373.33;264.77;;;;;26.10;97765.00;;;;5006685;28;20293;-70
2023/10/01 10:13:37;;;;;;;370.47;261.10;;;;;26.00;97766.00;;;;5006944;28;20203;-71
2023/10/01 10:16:32;;;;;;;371.63;269.17;;;;;26.10;97767.00;;;;5006731;28;20220;-70
2023/10/01 10:19:22;;;;;;;369.67;268.13;;;;;25.70;97760.00;;;;5002330;28;20213;-71
2023/10/01 10:22:16;;;;;;;393.33;290.57;;;;;26.20;97754.00;;;;5018553;23;20238;-86
2023/10/01 10:25:22;;;;;;;367.63;275.50;;;;;26.70;97748.00;;;;5026175;28;20216;-86
2023/10/01 10:28:12;;;;;;;374.30;290.33;;;;;26.90;97749.00;;;;5022425;28;20724;-86
2023/10/01 10:31:29;;;;;;;381.20;297.70;;;;;27.30;97743.00;;;;5028275;28;20204;-86
2023/10/01 10:34:26;;;;;;;382.17;304.43;;;;;26.80;97739.00;;;;5030701;28;20221;-85
2023/10/01 10:37:45;;;;;;;379.77;325.27;;;;;27.30;97735.00;;;;5063495;23;20252;-91
2023/10/01 10:41:05;;;;;;;385.10;330.23;;;;;27.70;97735.00;;;;5066256;28;20224;-91
2023/10/01 10:44:08;;;;;;;388.70;344.87;;;;;28.30;97733.00;;;;5070826;28;20204;-91
2023/10/01 10:47:07;;;;;;;386.57;340.10;;;;;28.30;97730.00;;;;5080688;28;20675;-91
2023/10/01 10:49:56;;;;;;;418.37;374.47;;;;;28.60;97735.00;;;;5079565;28;20226;-90
2023/10/01 10:52:50;;;;;;;439.10;394.33;;;;;28.80;97723.00;;;;5070169;28;20205;-90
2023/10/01 10:55:38;;;;;;;438.53;393.90;;;;;29.40;97725.00;;;;5069042;28;20216;-91
2023/10/01 10:58:28;;;;;;;461.10;416.17;;;;;29.60;97725.00;;;;5064130;28;20224;-91
2023/10/01 11:01:18;;;;;;;450.83;406.50;;;;;29.50;97720.00;;;;5064176;28;20224;-91
2023/10/01 11:04:09;;;;;;;494.40;448.07;;;;;29.90;97717.00;;;;5065896;28;20201;-91
2023/10/01 11:07:02;;;;;;;491.57;445.37;;;;;29.30;97718.00;;;;5063307;28;20258;-91
2023/10/01 11:09:55;;;;;;;487.10;441.63;;;;;29.30;97717.00;;;;5067755;28;20489;-90
2023/10/01 11:12:54;;;;;;;483.63;438.00;;;;;29.30;97701.00;;;;5052650;28;20213;-91
2023/10/01 11:15:45;;;;;;;481.70;435.97;;;;;28.60;97700.00;;;;5062420;28;20582;-90
2023/10/01 11:18:41;;;;;;;526.60;479.03;;;;;29.50;97702.00;;;;5059898;28;20223;-90
2023/10/01 11:21:32;;;;;;;485.13;439.73;;;;;29.90;97699.00;;;;5064629;28;20265;-91
2023/10/01 11:24:22;;;;;;;518.67;470.63;;;;;30.20;97698.00;;;;5059125;28;20255;-90
2023/10/01 11:27:18;;;;;;;546.10;497.37;;;;;30.20;97699.00;;;;5060816;28;20208;-90
2023/10/01 11:30:15;;;;;;;546.13;497.77;;;;;30.80;97703.00;;;;5066586;28;20230;-90
2023/10/01 11:33:14;;;;;;;561.70;512.77;;;;;30.60;97698.00;;;;5063947;28;20204;-91
2023/10/01 11:36:10;;;;;;;557.13;508.53;;;;;31.20;97695.00;;;;5065027;28;20216;-91
2023/10/01 11:39:03;;;;;;;556.40;508.60;;;;;31.30;97691.00;;;;5064134;28;20710;-91
2023/10/01 11:41:54;;;;;;;573.00;525.00;;;;;29.50;97677.00;;;;5067920;28;20201;-90
2023/10/01 11:44:44;;;;;;;591.87;542.67;;;;;29.10;97666.00;;;;5064744;28;20205;-89
2023/10/01 11:48:04;;;;;;;581.37;532.80;;;;;30.60;97676.00;;;;5064508;28;20200;-90
2023/10/01 11:50:54;;;;;;;556.63;509.10;;;;;31.60;97674.00;;;;5065728;28;20219;-90
2023/10/01 11:53:57;;;;;;;575.30;527.13;;;;;32.40;97664.00;;;;5067326;28;20206;-90
2023/10/01 11:57:04;;;;;;;606.13;556.13;;;;;31.50;97667.00;;;;5065593;28;20202;-90
2023/10/01 11:59:55;;;;;;;606.40;557.30;;;;;30.20;97660.00;;;;5057265;28;20226;-90
2023/10/01 12:02:44;;;;;;;594.77;546.00;;;;;31.50;97661.00;;;;5064263;28;20211;-90
2023/10/01 12:05:41;;;;;;;590.57;542.03;;;;;32.60;97658.00;;;;5065561;28;20209;-90
2023/10/01 12:08:36;;;;;;;616.73;567.53;;;;;32.50;97655.00;;;;5060723;28;20200;-92
2023/10/01 12:11:27;;;;;;;617.93;568.73;;;;;33.30;97651.00;;;;5064291;28;20220;-92
2023/10/01 12:14:20;;;;;;;633.63;583.77;;;;;33.60;97645.00;;;;5062898;28;20206;-92
2023/10/01 12:17:09;;;;;;;648.43;598.40;;;;;34.00;97632.00;;;;5063794;28;20206;-91
2023/10/01 12:20:01;;;;;;;620.23;571.37;;;;;34.80;97640.00;;;;5063799;28;20235;-92
2023/10/01 12:23:04;;;;;;;657.77;608.00;;;;;32.60;97631.00;;;;5063289;28;20710;-92
2023/10/01 12:26:31;;;;;;;651.20;602.27;;;;;32.90;97637.00;;;;5057897;28;20201;-89
2023/10/01 12:29:15;;;;;;;638.80;589.70;;;;;33.20;97633.00;;;;5058426;28;20192;-91
2023/10/01 12:32:10;;;;;;;569.37;522.77;;;;;33.50;97636.00;;;;5066447;28;20199;-91
2023/10/01 12:35:18;;;;;;;595.80;547.60;;;;;32.90;97638.00;;;;5059824;28;20234;-89
2023/10/01 12:38:22;;;;;;;599.70;551.63;;;;;34.00;97635.00;;;;5055977;28;20223;-91
2023/10/01 12:41:12;;;;;;;585.87;539.50;;;;;34.10;97635.00;;;;5060214;28;20223;-91
2023/10/01 12:44:24;;;;;;;570.97;524.33;;;;;34.60;97627.00;;;;5064105;28;20209;-91
2023/10/01 12:47:15;;;;;;;591.17;544.07;;;;;34.90;97628.00;;;;5066910;28;20196;-91
2023/10/01 12:50:09;;;;;;;593.13;546.40;;;;;31.50;97623.00;;;;5067136;28;20224;-89
2023/10/01 12:56:02;;;;;;;558.87;512.90;;;;;30.30;97604.00;;;;5056942;28;20573;-88
2023/10/01 12:58:53;;;;;;;530.37;485.43;;;;;31.60;97609.00;;;;5059397;28;20222;-89
2023/10/01 13:01:43;;;;;;;542.43;496.50;;;;;33.70;97604.00;;;;5062492;28;20219;-90
2023/10/01 13:04:37;;;;;;;536.83;491.60;;;;;33.80;97610.00;;;;5063931;28;20621;-90
2023/10/01 13:07:35;;;;;;;536.23;491.27;;;;;34.10;97605.00;;;;5068834;28;20196;-90
2023/10/01 13:10:34;;;;;;;524.13;479.87;;;;;31.50;97591.00;;;;5068643;28;20241;-89
2023/10/01 13:13:29;;;;;;;536.80;491.50;;;;;29.90;97587.00;;;;5064426;28;20240;-90
2023/10/01 13:16:18;;;;;;;530.00;484.93;;;;;31.90;97597.00;;;;5070522;28;20203;-89
2023/10/01 13:19:17;;;;;;;536.20;491.53;;;;;30.50;97586.00;;;;5071823;28;20223;-88
2023/10/01 13:22:08;;;;;;;544.00;498.20;;;;;29.40;97583.00;;;;5066653;28;20564;-87
2023/10/01 13:24:57;;;;;;;541.37;495.03;;;;;30.60;97589.00;;;;5073607;28;20196;-89
2023/10/01 13:27:47;;;;;;;519.67;474.23;;;;;30.50;97614.00;;;;5068588;28;20203;-88
2023/10/01 13:33:53;;;;;;;523.97;478.40;;;;;31.70;97593.00;;;;5105715;27;20754;-70
2023/10/01 13:36:50;;;;;;;525.90;480.20;;;;;32.80;97584.00;;;;5121442;27;20207;-70
2023/10/01 13:39:48;;;;;;;529.97;484.20;;;;;30.90;97579.00;;;;5118650;27;20196;-70
2023/10/01 14:10:59;;;;;;;555.40;507.13;;;;;30.80;97553.00;;;;5124334;27;20205;-68
2023/10/01 14:13:49;;;;;;;548.33;500.20;;;;;29.00;97545.00;;;;5124116;27;20228;-69
2023/10/01 14:16:40;;;;;;;539.63;492.53;;;;;29.30;97558.00;;;;5125375;27;20839;-69
2023/10/01 14:19:30;;;;;;;505.53;460.10;;;;;29.50;97553.00;;;;5117706;27;20208;-71
2023/10/01 14:22:20;;;;;;;516.00;469.73;;;;;28.40;97551.00;;;;5123915;27;20197;-68
2023/10/01 14:25:20;;;;;;;504.30;458.13;;;;;27.90;97550.00;;;;5122710;27;20213;-69
2023/10/01 14:28:19;;;;;;;532.57;484.60;;;;;29.10;97555.00;;;;5123245;27;20250;-72
2023/10/01 14:31:11;;;;;;;547.47;498.07;;;;;29.70;97563.00;;;;5123057;27;20201;-70
2023/10/01 14:34:03;;;;;;;516.57;469.57;;;;;29.40;97555.00;;;;5121236;27;20240;-69
2023/10/01 14:36:54;;;;;;;531.60;483.73;;;;;28.90;97548.00;;;;5123202;27;20597;-68
2023/10/01 14:39:47;;;;;;;582.60;533.00;;;;;29.40;97556.00;;;;5122222;27;20286;-68
2023/10/01 14:42:36;;;;;;;580.40;530.93;;;;;30.00;97564.00;;;;5121798;27;20224;-68